Time;durP1;ratioP1;P1;durP2;ratioP2;P2;SDS_P1;SDS_P2;PMS_P1;PMS_P2;Temp;Humidity;BMP_temperature;BMP_pressure;BME280_temperature;BME280_humidity;BME280_pressure;Samples;Min_cycle;Max_cycle;Signal;HPM_P1;HPM_P2
2022/04/07 00:00:05;;;;;;;3.35;1.60;;;;;;;;;;5014143;28;20410;-73
2022/04/07 00:02:50;;;;;;;2.08;1.63;;;;;;;;;;5033391;28;20044;-73
2022/04/07 00:05:36;;;;;;;2.10;1.80;;;;;;;;;;5044345;28;20034;-73
2022/04/07 00:08:21;;;;;;;1.98;1.50;;;;;;;;;;5043509;28;20029;-73
2022/04/07 00:11:07;;;;;;;2.13;1.80;;;;;;;;;;5042997;28;20424;-73
2022/04/07 00:13:52;;;;;;;2.65;1.23;;;;;;;;;;5032123;28;20440;-64
2022/04/07 00:16:38;;;;;;;1.70;1.30;;;;;;;;;;5045693;28;20204;-65
2022/04/07 00:19:23;;;;;;;1.75;1.30;;;;;;;;;;5039150;28;20140;-65
2022/04/07 00:22:08;;;;;;;2.95;1.30;;;;;;;;;;5039629;28;20104;-66
2022/04/07 00:24:53;;;;;;;1.30;1.20;;;;;;;;;;5039483;28;20372;-68
2022/04/07 00:27:38;;;;;;;1.83;1.25;;;;;;;;;;5031409;28;20064;-65
2022/04/07 00:30:24;;;;;;;1.50;1.40;;;;;;;;;;5035112;28;20024;-63
2022/04/07 00:33:09;;;;;;;2.33;1.20;;;;;;;;;;5036382;28;20036;-73
2022/04/07 00:35:54;;;;;;;1.55;1.30;;;;;;;;;;5058221;28;20400;-75
2022/04/07 00:38:40;;;;;;;2.47;1.40;;;;;;;;;;5039544;28;20147;-73
2022/04/07 00:41:25;;;;;;;1.10;1.00;;;;;;;;;;5048441;28;20040;-72
2022/04/07 00:44:10;;;;;;;1.90;1.27;;;;;;;;;;5036220;28;20032;-73
2022/04/07 00:46:56;;;;;;;1.40;1.30;;;;;;;;;;5045582;28;20115;-73
2022/04/07 00:49:41;;;;;;;1.42;1.30;;;;;;;;;;5055237;28;20568;-73
2022/04/07 00:52:28;;;;;;;3.03;1.30;;;;;;;;;;5039370;28;20032;-64
2022/04/07 00:55:14;;;;;;;1.25;1.15;;;;;;;;;;5053952;28;20086;-65
2022/04/07 00:58:01;;;;;;;1.85;1.23;;;;;;;;;;5035313;28;20037;-62
2022/04/07 01:00:46;;;;;;;1.38;1.17;;;;;;;;;;5041015;28;20083;-67
2022/04/07 01:03:31;;;;;;;1.40;1.30;;;;;;;;;;5042440;28;20074;-66
2022/04/07 01:06:18;;;;;;;1.55;1.30;;;;;;;;;;5043019;28;20360;-68
2022/04/07 01:09:04;;;;;;;2.28;1.13;;;;;;;;;;5043504;28;20038;-65
2022/04/07 01:11:50;;;;;;;2.65;1.38;;;;;;;;;;5036707;28;20051;-65
2022/04/07 01:14:48;;;;;;;1.38;1.20;;;;;;;;;;5046189;28;20033;-66
2022/04/07 01:17:38;;;;;;;1.40;1.15;;;;;;;;;;5035571;28;20534;-66
2022/04/07 01:20:23;;;;;;;;;;;;;;;;;;5057324;28;20052;-67
2022/04/07 01:23:08;;;;;;;1.23;1.13;;;;;;;;;;5036909;28;19909;-66
2022/04/07 01:25:54;;;;;;;1.20;1.10;;;;;;;;;;5023040;28;20487;-67
2022/04/07 01:28:45;;;;;;;1.35;1.17;;;;;;;;;;5045353;28;20033;-62
2022/04/07 01:31:31;;;;;;;3.38;1.02;;;;;;;;;;5043038;28;20025;-64
2022/04/07 01:34:17;;;;;;;2.33;0.90;;;;;;;;;;5041431;28;20416;-66
2022/04/07 01:37:02;;;;;;;1.40;1.10;;;;;;;;;;5040436;28;20029;-64
2022/04/07 01:39:48;;;;;;;1.20;1.10;;;;;;;;;;5039209;28;20080;-63
2022/04/07 01:42:34;;;;;;;0.82;0.82;;;;;;;;;;5043702;28;20013;-72
2022/04/07 01:45:20;;;;;;;1.95;1.00;;;;;;;;;;5043595;28;20032;-66
2022/04/07 01:48:07;;;;;;;1.77;1.05;;;;;;;;;;5036384;28;20373;-74
2022/04/07 01:50:52;;;;;;;1.73;1.10;;;;;;;;;;5041037;28;20044;-72
2022/04/07 01:53:38;;;;;;;3.15;1.20;;;;;;;;;;5037343;28;20025;-72
2022/04/07 01:56:24;;;;;;;1.33;0.98;;;;;;;;;;5050675;28;20036;-72
2022/04/07 01:59:10;;;;;;;0.93;0.90;;;;;;;;;;5029561;28;20626;-71
2022/04/07 02:01:55;;;;;;;1.02;1.00;;;;;;;;;;5047836;28;20036;-72
2022/04/07 02:04:55;;;;;;;2.17;1.10;;;;;;;;;;5050603;28;20028;-73
2022/04/07 02:07:42;;;;;;;1.20;0.93;;;;;;;;;;5033715;28;20078;-75
2022/04/07 02:10:28;;;;;;;0.90;0.90;;;;;;;;;;5046972;28;20028;-72
2022/04/07 02:13:14;;;;;;;2.55;1.25;;;;;;;;;;5035452;28;20029;-72
2022/04/07 02:16:01;;;;;;;1.25;1.15;;;;;;;;;;5041816;28;20058;-73
2022/04/07 02:18:46;;;;;;;1.23;1.13;;;;;;;;;;5048951;28;20124;-72
2022/04/07 02:21:31;;;;;;;1.45;1.30;;;;;;;;;;5034950;28;20023;-68
2022/04/07 02:24:16;;;;;;;2.33;1.10;;;;;;;;;;5050052;28;20025;-62
2022/04/07 02:27:02;;;;;;;3.90;1.40;;;;;;;;;;5048368;28;21177;-62
2022/04/07 02:29:47;;;;;;;1.85;1.33;;;;;;;;;;5044171;28;20315;-61
2022/04/07 02:32:32;;;;;;;1.40;1.27;;;;;;;;;;5033106;28;20471;-65
2022/04/07 02:35:17;;;;;;;1.25;1.10;;;;;;;;;;5037779;28;20040;-64
2022/04/07 02:38:03;;;;;;;1.35;1.10;;;;;;;;;;5044136;28;20031;-64
2022/04/07 02:40:48;;;;;;;3.80;1.13;;;;;;;;;;5060670;28;20310;-64
2022/04/07 02:43:33;;;;;;;2.78;1.20;;;;;;;;;;5029123;28;20245;-66
2022/04/07 02:46:18;;;;;;;3.88;1.73;;;;;;;;;;5035103;28;20033;-69
2022/04/07 02:49:04;;;;;;;3.67;1.23;;;;;;;;;;5042982;28;20159;-70
2022/04/07 02:51:50;;;;;;;1.35;1.00;;;;;;;;;;5053681;28;20038;-68
2022/04/07 02:54:35;;;;;;;1.05;0.98;;;;;;;;;;5032082;28;20036;-68
2022/04/07 02:57:24;;;;;;;4.15;1.45;;;;;;;;;;5040755;28;20460;-68
2022/04/07 03:00:09;;;;;;;1.88;1.13;;;;;;;;;;5020521;28;20056;-69
2022/04/07 03:02:54;;;;;;;1.38;1.00;;;;;;;;;;5041632;28;20503;-66
2022/04/07 03:05:40;;;;;;;1.25;1.10;;;;;;;;;;5038235;28;20021;-66
2022/04/07 03:08:25;;;;;;;2.20;0.95;;;;;;;;;;5036899;28;20025;-66
2022/04/07 03:11:10;;;;;;;1.75;1.15;;;;;;;;;;5041281;28;20044;-68
2022/04/07 03:13:55;;;;;;;3.67;1.70;;;;;;;;;;5034697;28;20025;-68
2022/04/07 03:16:41;;;;;;;1.80;1.10;;;;;;;;;;5038362;28;20021;-62
2022/04/07 03:19:26;;;;;;;1.35;1.17;;;;;;;;;;5045636;28;20485;-64
2022/04/07 03:22:12;;;;;;;3.13;1.20;;;;;;;;;;5036831;28;20534;-65
2022/04/07 03:24:58;;;;;;;2.08;1.00;;;;;;;;;;5034606;28;20029;-64
2022/04/07 03:27:43;;;;;;;2.10;1.10;;;;;;;;;;5036979;28;20033;-64
2022/04/07 03:30:28;;;;;;;1.27;0.90;;;;;;;;;;5034196;28;20487;-64
2022/04/07 03:33:13;;;;;;;1.40;1.10;;;;;;;;;;5043841;28;20032;-64
2022/04/07 03:35:58;;;;;;;2.03;1.02;;;;;;;;;;5046402;28;20048;-72
2022/04/07 03:38:45;;;;;;;2.38;1.10;;;;;;;;;;5021066;28;20021;-75
2022/04/07 03:41:31;;;;;;;1.58;1.38;;;;;;;;;;5033150;28;20336;-75
2022/04/07 03:44:16;;;;;;;1.70;1.00;;;;;;;;;;5033263;28;20484;-73
2022/04/07 03:47:01;;;;;;;1.98;1.10;;;;;;;;;;5039029;28;20383;-72
2022/04/07 03:49:47;;;;;;;1.80;1.38;;;;;;;;;;5033748;28;20454;-72
2022/04/07 03:52:32;;;;;;;1.17;0.90;;;;;;;;;;5049190;28;20082;-65
2022/04/07 03:55:19;;;;;;;2.67;1.05;;;;;;;;;;5045556;28;20064;-72
2022/04/07 03:58:04;;;;;;;2.33;0.90;;;;;;;;;;5031748;28;20541;-72
2022/04/07 04:00:50;;;;;;;1.30;1.20;;;;;;;;;;5043270;28;20039;-73
2022/04/07 04:03:35;;;;;;;1.08;0.90;;;;;;;;;;5041236;28;20025;-71
2022/04/07 04:06:20;;;;;;;1.33;0.90;;;;;;;;;;5041975;28;20056;-72
2022/04/07 04:09:05;;;;;;;2.50;0.90;;;;;;;;;;5040403;28;20494;-74
2022/04/07 04:11:52;;;;;;;2.22;0.90;;;;;;;;;;5042027;28;20025;-69
2022/04/07 04:14:38;;;;;;;1.15;0.95;;;;;;;;;;5044593;28;20117;-72
2022/04/07 04:17:27;;;;;;;2.05;0.90;;;;;;;;;;5042420;28;20065;-73
2022/04/07 04:20:12;;;;;;;1.52;0.98;;;;;;;;;;5033942;28;20102;-73
2022/04/07 04:22:58;;;;;;;1.00;0.90;;;;;;;;;;5035870;28;20111;-73
2022/04/07 04:25:43;;;;;;;4.13;1.27;;;;;;;;;;5032355;28;20025;-72
2022/04/07 04:28:28;;;;;;;1.30;1.10;;;;;;;;;;5036539;28;20018;-72
2022/04/07 04:31:13;;;;;;;3.80;1.10;;;;;;;;;;5030900;28;20103;-65
2022/04/07 04:33:59;;;;;;;2.17;1.13;;;;;;;;;;5034120;28;20037;-63
2022/04/07 04:36:44;;;;;;;1.55;1.08;;;;;;;;;;5033867;28;20053;-66
2022/04/07 04:39:29;;;;;;;2.72;1.35;;;;;;;;;;5035223;28;20410;-64
2022/04/07 04:42:15;;;;;;;1.30;1.20;;;;;;;;;;5036586;28;20025;-63
2022/04/07 04:45:00;;;;;;;1.73;1.13;;;;;;;;;;5037144;28;20051;-61
2022/04/07 04:47:46;;;;;;;1.55;1.20;;;;;;;;;;5036022;28;20024;-72
2022/04/07 04:50:31;;;;;;;2.47;1.15;;;;;;;;;;5028700;28;20514;-68
2022/04/07 04:53:17;;;;;;;1.20;1.10;;;;;;;;;;5048027;28;20134;-68
2022/04/07 04:56:02;;;;;;;0.80;0.80;;;;;;;;;;5036468;28;20060;-66
2022/04/07 04:58:47;;;;;;;1.98;0.88;;;;;;;;;;5051772;28;20102;-66
2022/04/07 05:01:32;;;;;;;1.63;1.00;;;;;;;;;;5028550;28;20115;-67
2022/04/07 05:04:18;;;;;;;3.17;1.00;;;;;;;;;;5042356;28;20029;-67
2022/04/07 05:07:03;;;;;;;1.35;1.00;;;;;;;;;;5024403;28;20144;-63
2022/04/07 05:09:53;;;;;;;1.10;0.88;;;;;;;;;;5033272;28;20103;-63
2022/04/07 05:12:39;;;;;;;1.40;0.90;;;;;;;;;;5037765;28;20472;-63
2022/04/07 05:15:24;;;;;;;1.23;0.98;;;;;;;;;;5034933;28;20033;-63
2022/04/07 05:18:09;;;;;;;0.70;0.70;;;;;;;;;;5039795;28;20039;-63
2022/04/07 05:20:54;;;;;;;1.70;1.00;;;;;;;;;;5040746;28;20094;-64
2022/04/07 05:23:40;;;;;;;2.33;1.02;;;;;;;;;;5033963;28;20400;-73
2022/04/07 05:26:25;;;;;;;1.40;1.02;;;;;;;;;;5029559;28;20048;-71
2022/04/07 05:29:10;;;;;;;0.98;0.90;;;;;;;;;;5040718;28;20041;-66
2022/04/07 05:31:56;;;;;;;0.80;0.80;;;;;;;;;;5047421;28;20025;-69
2022/04/07 05:34:41;;;;;;;1.75;0.80;;;;;;;;;;5050090;28;20029;-70
2022/04/07 05:37:26;;;;;;;3.00;0.90;;;;;;;;;;5046650;28;20021;-70
2022/04/07 05:40:12;;;;;;;2.50;1.00;;;;;;;;;;5036667;28;20169;-68
2022/04/07 05:42:59;;;;;;;1.38;1.02;;;;;;;;;;5047763;28;20388;-67
2022/04/07 05:45:45;;;;;;;4.07;0.80;;;;;;;;;;5030501;28;20080;-67
2022/04/07 05:48:30;;;;;;;2.40;0.93;;;;;;;;;;5036156;28;20396;-64
2022/04/07 05:51:16;;;;;;;1.77;0.98;;;;;;;;;;5022556;28;20044;-65
2022/04/07 05:54:01;;;;;;;1.95;1.05;;;;;;;;;;5036429;28;20410;-64
2022/04/07 05:56:46;;;;;;;1.30;0.80;;;;;;;;;;5033554;28;20068;-65
2022/04/07 05:59:31;;;;;;;1.73;0.90;;;;;;;;;;5039012;28;20048;-63
2022/04/07 06:02:17;;;;;;;1.00;0.90;;;;;;;;;;5042768;28;20323;-67
2022/04/07 06:05:02;;;;;;;2.13;0.90;;;;;;;;;;5045892;28;20495;-74
2022/04/07 06:07:47;;;;;;;1.00;0.90;;;;;;;;;;5037704;28;20112;-73
2022/04/07 06:10:34;;;;;;;2.13;0.80;;;;;;;;;;5039901;28;20051;-73
2022/04/07 06:13:19;;;;;;;1.23;0.70;;;;;;;;;;5034829;28;20068;-73
2022/04/07 06:16:04;;;;;;;1.17;0.63;;;;;;;;;;5045863;28;20538;-73
2022/04/07 06:18:51;;;;;;;1.95;0.70;;;;;;;;;;5038676;28;20045;-71
2022/04/07 06:21:36;;;;;;;1.85;0.88;;;;;;;;;;5035290;28;20108;-70
2022/04/07 06:24:21;;;;;;;1.10;0.80;;;;;;;;;;5048869;28;20060;-76
2022/04/07 06:27:06;;;;;;;1.08;1.00;;;;;;;;;;5006430;28;20029;-75
2022/04/07 06:29:54;;;;;;;1.20;0.80;;;;;;;;;;5016659;28;20528;-74
2022/04/07 06:32:39;;;;;;;2.08;0.68;;;;;;;;;;5016797;28;20025;-74
2022/04/07 06:35:24;;;;;;;0.68;0.68;;;;;;;;;;5047759;28;20439;-74
2022/04/07 06:38:10;;;;;;;2.22;0.80;;;;;;;;;;5050590;28;20021;-65
2022/04/07 06:40:55;;;;;;;1.45;0.85;;;;;;;;;;5035925;28;20484;-71
2022/04/07 06:43:40;;;;;;;0.70;0.70;;;;;;;;;;5034747;28;20037;-70
2022/04/07 06:46:25;;;;;;;1.80;0.80;;;;;;;;;;5045017;28;20070;-71
2022/04/07 06:49:11;;;;;;;1.13;0.88;;;;;;;;;;5040671;28;20079;-70
2022/04/07 06:51:56;;;;;;;0.70;0.70;;;;;;;;;;5022385;28;20032;-70
2022/04/07 06:54:41;;;;;;;0.98;0.75;;;;;;;;;;5034500;28;20420;-71
2022/04/07 06:57:26;;;;;;;1.17;0.70;;;;;;;;;;5038579;28;20028;-74
2022/04/07 07:00:12;;;;;;;1.27;0.68;;;;;;;;;;5048174;28;20514;-64
2022/04/07 07:02:58;;;;;;;1.00;0.85;;;;;;;;;;5035734;28;20025;-63
2022/04/07 07:05:43;;;;;;;0.93;0.80;;;;;;;;;;5049515;28;20051;-64
2022/04/07 07:08:29;;;;;;;1.00;0.90;;;;;;;;;;5037625;28;20021;-62
2022/04/07 07:11:14;;;;;;;1.92;1.00;;;;;;;;;;5020407;28;20312;-65
2022/04/07 07:14:00;;;;;;;0.63;0.63;;;;;;;;;;5034057;28;20047;-63
2022/04/07 07:16:45;;;;;;;1.48;0.88;;;;;;;;;;5044374;28;20119;-74
2022/04/07 07:19:30;;;;;;;1.17;0.80;;;;;;;;;;5051932;28;20048;-66
2022/04/07 07:22:15;;;;;;;1.02;0.70;;;;;;;;;;5037665;28;20476;-64
2022/04/07 07:25:00;;;;;;;2.05;0.70;;;;;;;;;;5047901;28;20023;-64
2022/04/07 07:27:46;;;;;;;0.85;0.60;;;;;;;;;;5035266;28;20033;-66
2022/04/07 07:30:32;;;;;;;1.25;0.70;;;;;;;;;;5033823;28;20472;-68
2022/04/07 07:33:17;;;;;;;0.95;0.85;;;;;;;;;;5035262;28;20025;-67
2022/04/07 07:36:03;;;;;;;0.82;0.80;;;;;;;;;;5047667;28;20429;-65
2022/04/07 07:38:48;;;;;;;1.40;0.77;;;;;;;;;;5054136;28;20400;-66
2022/04/07 07:41:34;;;;;;;1.27;0.63;;;;;;;;;;5041964;28;20025;-65
2022/04/07 07:44:19;;;;;;;1.48;0.70;;;;;;;;;;5031121;28;20021;-65
2022/04/07 07:47:04;;;;;;;1.15;0.70;;;;;;;;;;5023411;28;20090;-65
2022/04/07 07:49:49;;;;;;;0.80;0.63;;;;;;;;;;5027400;28;20021;-65
2022/04/07 07:52:34;;;;;;;1.25;0.70;;;;;;;;;;5025473;28;20025;-63
2022/04/07 07:55:20;;;;;;;2.10;0.63;;;;;;;;;;5029165;28;20469;-75
2022/04/07 07:58:05;;;;;;;2.85;0.75;;;;;;;;;;5031986;28;20116;-74
2022/04/07 08:00:51;;;;;;;6.35;1.10;;;;;;;;;;5034798;28;20079;-74
2022/04/07 08:03:36;;;;;;;2.00;0.90;;;;;;;;;;5015164;28;20396;-74
2022/04/07 08:06:22;;;;;;;1.48;0.70;;;;;;;;;;5030473;28;20025;-74
2022/04/07 08:09:10;;;;;;;1.75;0.75;;;;;;;;;;5045340;28;20033;-65
2022/04/07 08:11:55;;;;;;;1.58;0.88;;;;;;;;;;5043541;28;20111;-70
2022/04/07 08:14:40;;;;;;;1.35;0.73;;;;;;;;;;5034554;28;20487;-73
2022/04/07 08:17:25;;;;;;;1.95;0.80;;;;;;;;;;5033567;28;20036;-74
2022/04/07 08:20:11;;;;;;;2.58;0.90;;;;;;;;;;5020828;28;20270;-74
2022/04/07 08:22:57;;;;;;;1.85;0.95;;;;;;;;;;5039315;28;20103;-75
2022/04/07 08:25:42;;;;;;;1.67;0.80;;;;;;;;;;5023042;28;20831;-73
2022/04/07 08:28:27;;;;;;;1.50;0.88;;;;;;;;;;5038767;28;20503;-74
2022/04/07 08:31:12;;;;;;;1.85;0.80;;;;;;;;;;5034644;28;20036;-71
2022/04/07 08:33:57;;;;;;;2.65;0.90;;;;;;;;;;5033014;28;20581;-71
2022/04/07 08:36:43;;;;;;;0.98;0.80;;;;;;;;;;5044455;28;20040;-70
2022/04/07 08:39:28;;;;;;;0.60;0.60;;;;;;;;;;5033176;28;20021;-69
2022/04/07 08:42:13;;;;;;;2.85;1.00;;;;;;;;;;5034779;28;20044;-69
2022/04/07 08:44:58;;;;;;;1.27;0.70;;;;;;;;;;5024080;28;20120;-70
2022/04/07 08:47:46;;;;;;;3.70;1.17;;;;;;;;;;5049508;28;20020;-74
2022/04/07 08:50:33;;;;;;;2.13;0.90;;;;;;;;;;5002320;28;20029;-67
2022/04/07 08:53:18;;;;;;;0.73;0.73;;;;;;;;;;5021035;28;20477;-65
2022/04/07 08:56:05;;;;;;;2.90;0.70;;;;;;;;;;5054662;28;20036;-64
2022/04/07 08:58:50;;;;;;;1.77;0.80;;;;;;;;;;5034676;28;20533;-65
2022/04/07 09:01:35;;;;;;;0.80;0.80;;;;;;;;;;5039013;28;20403;-67
2022/04/07 09:04:21;;;;;;;3.03;0.80;;;;;;;;;;5036325;28;20491;-67
2022/04/07 09:07:09;;;;;;;0.88;0.63;;;;;;;;;;5037804;28;20470;-74
2022/04/07 09:09:57;;;;;;;0.77;0.70;;;;;;;;;;5015134;28;20483;-64
2022/04/07 09:12:44;;;;;;;2.25;0.80;;;;;;;;;;5051360;28;20045;-65
2022/04/07 09:15:30;;;;;;;2.25;0.70;;;;;;;;;;5022886;28;20340;-66
2022/04/07 09:18:22;;;;;;;1.52;0.70;;;;;;;;;;5030372;28;20037;-63
2022/04/07 09:21:07;;;;;;;4.40;1.48;;;;;;;;;;5038015;28;20076;-64
2022/04/07 09:23:54;;;;;;;2.20;1.05;;;;;;;;;;5031283;28;20112;-66
2022/04/07 09:26:43;;;;;;;1.90;0.75;;;;;;;;;;5017669;28;20088;-65
2022/04/07 09:29:44;;;;;;;1.27;0.70;;;;;;;;;;5046939;28;20029;-66
2022/04/07 09:32:29;;;;;;;2.92;0.90;;;;;;;;;;5037817;28;20071;-66
2022/04/07 09:35:15;;;;;;;0.75;0.70;;;;;;;;;;5040302;28;20507;-65
2022/04/07 09:38:01;;;;;;;0.98;0.90;;;;;;;;;;5039086;28;20082;-66
2022/04/07 09:40:46;;;;;;;0.68;0.68;;;;;;;;;;5060635;28;20043;-65
2022/04/07 09:43:45;;;;;;;0.70;0.70;;;;;;;;;;5036901;28;20016;-69
2022/04/07 09:46:35;;;;;;;1.63;0.83;;;;;;;;;;5028893;28;20057;-64
2022/04/07 09:49:20;;;;;;;2.35;0.98;;;;;;;;;;5037094;28;20017;-64
2022/04/07 09:52:07;;;;;;;2.97;1.13;;;;;;;;;;5064679;28;20025;-62
2022/04/07 09:54:56;;;;;;;1.63;0.90;;;;;;;;;;5056438;28;20530;-64
2022/04/07 09:57:42;;;;;;;1.70;0.98;;;;;;;;;;5032746;28;20053;-64
2022/04/07 10:00:27;;;;;;;1.92;1.00;;;;;;;;;;5037171;28;20100;-65
2022/04/07 10:03:13;;;;;;;1.85;0.65;;;;;;;;;;5016452;28;20033;-65
2022/04/07 10:05:59;;;;;;;1.25;0.70;;;;;;;;;;5017988;28;20435;-64
2022/04/07 10:08:49;;;;;;;1.45;1.00;;;;;;;;;;5036412;28;20040;-65
2022/04/07 10:11:35;;;;;;;1.38;0.80;;;;;;;;;;5043444;28;20021;-65
2022/04/07 10:14:23;;;;;;;2.97;1.00;;;;;;;;;;5032420;28;20040;-64
2022/04/07 10:17:09;;;;;;;0.85;0.80;;;;;;;;;;5024167;28;20623;-64
2022/04/07 10:19:56;;;;;;;0.60;0.60;;;;;;;;;;5036298;28;20056;-76
2022/04/07 10:23:00;;;;;;;1.25;0.70;;;;;;;;;;5033580;28;20320;-65
2022/04/07 10:25:49;;;;;;;1.10;0.70;;;;;;;;;;5056211;28;20114;-65
2022/04/07 10:28:34;;;;;;;0.75;0.70;;;;;;;;;;5041117;28;20532;-65
2022/04/07 10:31:22;;;;;;;0.57;0.57;;;;;;;;;;5056259;28;20033;-64
2022/04/07 10:34:07;;;;;;;2.30;1.65;;;;;;;;;;5030927;28;20041;-64
2022/04/07 10:37:00;;;;;;;3.97;0.82;;;;;;;;;;5050189;28;20114;-69
2022/04/07 10:39:46;;;;;;;1.20;0.80;;;;;;;;;;5041197;28;20028;-65
2022/04/07 10:42:50;;;;;;;0.80;0.75;;;;;;;;;;5037736;28;20026;-65
2022/04/07 10:45:39;;;;;;;2.92;1.15;;;;;;;;;;5016398;28;20013;-66
2022/04/07 10:48:31;;;;;;;7.22;0.73;;;;;;;;;;5037814;28;20032;-64
2022/04/07 10:51:16;;;;;;;2.38;0.77;;;;;;;;;;5048130;28;20059;-66
2022/04/07 10:54:02;;;;;;;1.40;0.60;;;;;;;;;;5027227;28;20087;-63
2022/04/07 10:56:49;;;;;;;0.50;0.50;;;;;;;;;;5021823;28;20032;-71
2022/04/07 10:59:37;;;;;;;0.98;0.60;;;;;;;;;;5034447;28;20036;-75
2022/04/07 11:02:31;;;;;;;0.50;0.50;;;;;;;;;;5039229;28;20020;-74
2022/04/07 11:05:23;;;;;;;0.82;0.60;;;;;;;;;;5034780;28;20024;-73
2022/04/07 11:08:08;;;;;;;1.67;0.55;;;;;;;;;;5049013;28;20434;-74
2022/04/07 11:10:55;;;;;;;1.10;0.80;;;;;;;;;;5035197;28;20020;-72
2022/04/07 11:13:42;;;;;;;0.68;0.52;;;;;;;;;;5043529;28;20041;-74
2022/04/07 11:16:36;;;;;;;1.77;0.60;;;;;;;;;;5029527;28;20021;-63
2022/04/07 11:19:25;;;;;;;1.92;0.63;;;;;;;;;;5015332;28;20076;-75
2022/04/07 11:22:12;;;;;;;1.17;0.63;;;;;;;;;;5025466;28;20021;-75
2022/04/07 11:25:03;;;;;;;1.02;0.70;;;;;;;;;;5043436;28;20029;-74
2022/04/07 11:28:15;;;;;;;1.30;0.60;;;;;;;;;;5048974;28;20044;-74
2022/04/07 11:31:03;;;;;;;0.60;0.60;;;;;;;;;;5034922;28;20029;-73
2022/04/07 11:33:58;;;;;;;0.60;0.60;;;;;;;;;;5035235;28;20448;-69
2022/04/07 11:36:43;;;;;;;2.45;0.60;;;;;;;;;;5035165;28;20035;-63
2022/04/07 11:39:31;;;;;;;1.77;0.95;;;;;;;;;;5033842;28;20422;-63
2022/04/07 11:42:18;;;;;;;1.90;0.60;;;;;;;;;;5034780;28;20028;-65
2022/04/07 11:45:03;;;;;;;1.70;0.70;;;;;;;;;;5028299;28;20026;-64
2022/04/07 11:47:49;;;;;;;1.48;0.55;;;;;;;;;;5036802;28;20075;-65
2022/04/07 11:50:38;;;;;;;2.33;0.70;;;;;;;;;;5045802;28;20017;-68
2022/04/07 11:53:24;;;;;;;;;;;;;;;;;;5021435;28;20429;-70
2022/04/07 11:56:13;;;;;;;4.18;0.90;;;;;;;;;;5025184;28;19966;-75
2022/04/07 11:59:05;;;;;;;2.10;0.70;;;;;;;;;;5019779;28;20541;-75
2022/04/07 12:01:50;;;;;;;1.73;0.50;;;;;;;;;;5038828;28;20033;-74
2022/04/07 12:04:36;;;;;;;1.15;0.75;;;;;;;;;;5054857;28;20466;-73
2022/04/07 12:07:21;;;;;;;1.55;0.70;;;;;;;;;;5036671;28;20028;-76
2022/04/07 12:10:08;;;;;;;0.77;0.77;;;;;;;;;;5034081;28;20488;-68
2022/04/07 12:12:53;;;;;;;2.25;0.82;;;;;;;;;;5032612;28;20154;-69
2022/04/07 12:15:39;;;;;;;3.90;0.75;;;;;;;;;;5039655;28;20035;-68
2022/04/07 12:18:29;;;;;;;0.60;0.60;;;;;;;;;;5014515;28;20204;-70
2022/04/07 12:21:15;;;;;;;0.82;0.75;;;;;;;;;;5015908;28;20041;-69
2022/04/07 12:24:13;;;;;;;0.60;0.60;;;;;;;;;;5048157;28;20033;-72
2022/04/07 12:27:04;;;;;;;2.25;0.80;;;;;;;;;;5032788;28;20036;-65
2022/04/07 12:29:49;;;;;;;0.85;0.57;;;;;;;;;;5034204;28;20082;-70
2022/04/07 12:32:41;;;;;;;5.07;1.38;;;;;;;;;;5042327;28;20479;-76
2022/04/07 12:35:42;;;;;;;1.58;0.70;;;;;;;;;;5063749;28;20587;-75
2022/04/07 12:38:28;;;;;;;1.02;0.70;;;;;;;;;;5037243;28;20112;-77
2022/04/07 12:41:15;;;;;;;2.80;0.70;;;;;;;;;;5020719;28;20029;-75
2022/04/07 12:44:00;;;;;;;0.63;0.60;;;;;;;;;;5019295;28;20116;-75
2022/04/07 12:46:50;;;;;;;0.95;0.70;;;;;;;;;;5028563;28;20028;-75
2022/04/07 12:49:36;;;;;;;;;;;;;;;;;;5034780;28;20032;-66
2022/04/07 12:52:32;;;;;;;0.80;0.60;;;;;;;;;;5032963;28;19920;-63
2022/04/07 12:55:19;;;;;;;2.75;0.60;;;;;;;;;;5048057;28;20431;-64
2022/04/07 12:58:05;;;;;;;0.60;0.60;;;;;;;;;;5030375;28;20029;-65
2022/04/07 13:00:57;;;;;;;1.98;0.70;;;;;;;;;;5034555;28;20016;-63
2022/04/07 13:03:49;;;;;;;4.28;0.80;;;;;;;;;;5033015;28;20035;-64
2022/04/07 13:06:35;;;;;;;0.63;0.60;;;;;;;;;;5054271;28;20479;-71
2022/04/07 13:09:21;;;;;;;0.60;0.60;;;;;;;;;;5039283;28;20083;-73
2022/04/07 13:12:06;;;;;;;1.08;0.90;;;;;;;;;;5020277;28;20456;-75
2022/04/07 13:14:51;;;;;;;0.73;0.60;;;;;;;;;;5024123;28;20042;-74
2022/04/07 13:17:37;;;;;;;1.27;0.80;;;;;;;;;;5016145;28;20124;-76
2022/04/07 13:20:22;;;;;;;1.00;0.60;;;;;;;;;;5020255;28;20046;-74
2022/04/07 13:23:07;;;;;;;0.75;0.75;;;;;;;;;;4994750;28;20030;-72
2022/04/07 13:25:52;;;;;;;1.60;0.90;;;;;;;;;;5023107;23;20030;-61
2022/04/07 13:28:38;;;;;;;0.50;0.50;;;;;;;;;;5005176;28;20116;-60
2022/04/07 13:31:23;;;;;;;0.98;0.70;;;;;;;;;;5027825;28;20542;-59
2022/04/07 13:34:08;;;;;;;0.68;0.68;;;;;;;;;;5012799;28;20052;-61
2022/04/07 13:36:53;;;;;;;1.50;0.70;;;;;;;;;;5028528;28;20091;-61
2022/04/07 13:39:39;;;;;;;0.65;0.65;;;;;;;;;;5029245;28;20057;-63
2022/04/07 13:42:24;;;;;;;0.60;0.60;;;;;;;;;;5031048;28;20475;-65
2022/04/07 13:45:09;;;;;;;1.75;0.80;;;;;;;;;;5013498;28;20120;-63
2022/04/07 13:47:55;;;;;;;1.15;0.70;;;;;;;;;;5017318;28;20025;-63
2022/04/07 13:50:41;;;;;;;0.93;0.70;;;;;;;;;;5020288;28;20034;-62
2022/04/07 13:53:26;;;;;;;1.05;0.73;;;;;;;;;;4997783;28;20030;-62
2022/04/07 13:56:11;;;;;;;0.63;0.63;;;;;;;;;;5004247;28;20040;-63
2022/04/07 13:58:56;;;;;;;1.23;1.13;;;;;;;;;;5015832;28;20475;-64
2022/04/07 14:01:42;;;;;;;2.85;0.93;;;;;;;;;;5015649;28;20056;-62
2022/04/07 14:04:27;;;;;;;2.67;1.15;;;;;;;;;;5017433;28;20116;-68
2022/04/07 14:07:12;;;;;;;1.80;1.00;;;;;;;;;;5015944;28;20041;-69
2022/04/07 14:09:58;;;;;;;2.50;0.77;;;;;;;;;;5016911;28;20022;-68
2022/04/07 14:12:43;;;;;;;0.90;0.70;;;;;;;;;;5003106;28;20052;-71
2022/04/07 14:15:28;;;;;;;0.50;0.50;;;;;;;;;;5015671;28;20511;-69
2022/04/07 14:18:14;;;;;;;0.82;0.52;;;;;;;;;;4997493;28;20053;-65
2022/04/07 14:20:59;;;;;;;1.75;0.77;;;;;;;;;;5018490;28;20026;-67
2022/04/07 14:23:44;;;;;;;0.88;0.50;;;;;;;;;;5013279;28;20021;-68
2022/04/07 14:26:30;;;;;;;2.08;0.70;;;;;;;;;;5015408;28;20049;-69
2022/04/07 14:29:15;;;;;;;0.60;0.60;;;;;;;;;;5012936;28;20041;-68
2022/04/07 14:32:00;;;;;;;0.60;0.60;;;;;;;;;;5008251;28;20530;-71
2022/04/07 14:34:45;;;;;;;2.03;0.80;;;;;;;;;;5030141;28;20045;-67
2022/04/07 14:37:31;;;;;;;2.13;0.60;;;;;;;;;;5009657;28;20080;-64
2022/04/07 14:40:16;;;;;;;2.92;0.73;;;;;;;;;;4996924;28;20034;-60
2022/04/07 14:43:02;;;;;;;1.88;0.85;;;;;;;;;;5009072;28;20134;-65
2022/04/07 14:45:50;;;;;;;1.20;0.80;;;;;;;;;;5015381;28;20044;-64
2022/04/07 14:48:35;;;;;;;2.08;0.70;;;;;;;;;;5028754;28;20183;-63
2022/04/07 14:51:21;;;;;;;0.63;0.63;;;;;;;;;;5016498;28;20121;-60
2022/04/07 14:54:07;;;;;;;0.77;0.77;;;;;;;;;;5014360;28;20120;-66
2022/04/07 14:56:52;;;;;;;0.77;0.60;;;;;;;;;;5016449;28;20021;-69
2022/04/07 14:59:37;;;;;;;2.22;0.70;;;;;;;;;;4996529;28;20515;-64
2022/04/07 15:02:23;;;;;;;6.80;0.85;;;;;;;;;;4997089;28;20168;-61
2022/04/07 15:05:10;;;;;;;0.77;0.77;;;;;;;;;;5016448;28;20519;-60
2022/04/07 15:07:58;;;;;;;1.60;0.77;;;;;;;;;;5013553;28;20468;-62
2022/04/07 15:10:44;;;;;;;0.88;0.60;;;;;;;;;;5016153;28;20032;-60
2022/04/07 15:13:29;;;;;;;1.92;0.70;;;;;;;;;;5014776;28;20040;-72
2022/04/07 15:16:14;;;;;;;0.73;0.73;;;;;;;;;;5009969;28;20025;-62
2022/04/07 15:19:00;;;;;;;1.98;0.68;;;;;;;;;;4996164;28;20492;-61
2022/04/07 15:21:45;;;;;;;3.30;0.70;;;;;;;;;;4996510;28;20030;-60
2022/04/07 15:24:30;;;;;;;0.65;0.60;;;;;;;;;;5014502;28;20033;-60
2022/04/07 15:27:15;;;;;;;1.05;0.80;;;;;;;;;;5010219;28;20527;-61
2022/04/07 15:30:00;;;;;;;1.50;0.80;;;;;;;;;;5001806;28;20118;-61
2022/04/07 15:32:46;;;;;;;1.65;0.70;;;;;;;;;;4997599;28;20115;-64
2022/04/07 15:35:34;;;;;;;2.38;0.70;;;;;;;;;;5014091;28;20587;-63
2022/04/07 15:38:19;;;;;;;2.38;0.70;;;;;;;;;;5015402;28;20029;-63
2022/04/07 15:41:08;;;;;;;3.95;1.13;;;;;;;;;;5014916;28;20030;-62
2022/04/07 15:43:55;;;;;;;1.48;0.70;;;;;;;;;;5014648;28;20029;-62
2022/04/07 15:46:40;;;;;;;0.60;0.60;;;;;;;;;;5015677;28;20468;-63
2022/04/07 15:49:25;;;;;;;1.48;0.68;;;;;;;;;;5001930;28;20030;-62
2022/04/07 15:52:11;;;;;;;2.10;0.60;;;;;;;;;;5015405;28;20029;-61
2022/04/07 15:54:56;;;;;;;0.70;0.70;;;;;;;;;;5008897;28;20041;-64
2022/04/07 15:57:44;;;;;;;1.48;0.70;;;;;;;;;;5008880;28;20040;-65
2022/04/07 16:00:29;;;;;;;2.00;0.70;;;;;;;;;;5013669;28;20040;-63
2022/04/07 16:03:15;;;;;;;1.05;0.82;;;;;;;;;;5015067;28;20064;-62
2022/04/07 16:06:00;;;;;;;0.88;0.77;;;;;;;;;;5013526;28;20036;-60
2022/04/07 16:08:45;;;;;;;1.15;0.80;;;;;;;;;;5014358;28;20029;-65
2022/04/07 16:11:31;;;;;;;1.50;0.80;;;;;;;;;;4994580;28;20045;-62
2022/04/07 16:14:16;;;;;;;2.25;0.80;;;;;;;;;;4998280;28;20499;-62
2022/04/07 16:17:01;;;;;;;3.15;0.90;;;;;;;;;;4994219;28;20488;-61
2022/04/07 16:19:47;;;;;;;3.30;1.00;;;;;;;;;;4995508;28;20056;-63
2022/04/07 16:22:33;;;;;;;0.70;0.70;;;;;;;;;;5013309;28;20045;-63
2022/04/07 16:25:19;;;;;;;3.33;1.65;;;;;;;;;;5028430;28;20053;-62
2022/04/07 16:28:05;;;;;;;1.58;0.90;;;;;;;;;;5002557;28;20050;-73
2022/04/07 16:30:50;;;;;;;2.83;0.90;;;;;;;;;;5007837;28;20069;-63
2022/04/07 16:33:35;;;;;;;1.88;0.85;;;;;;;;;;5013085;28;20416;-63
2022/04/07 16:36:21;;;;;;;3.00;1.52;;;;;;;;;;5009248;28;20091;-63